createdAt,value
2023-03-16T00:00:55.422Z,78.74
2023-03-16T00:03:23.070Z,78.76
2023-03-16T00:05:53.123Z,78.82
2023-03-16T00:08:20.930Z,78.96
2023-03-16T00:10:48.749Z,78.85
2023-03-16T00:13:17.845Z,78.83
2023-03-16T00:16:04.502Z,79.09
2023-03-16T00:18:38.602Z,79.28
2023-03-16T00:21:06.657Z,79.38
2023-03-16T00:23:38.281Z,79.40
2023-03-16T00:26:08.934Z,79.36
2023-03-16T00:28:37.046Z,79.44
2023-03-16T00:31:07.246Z,79.71
2023-03-16T00:33:35.402Z,79.72
2023-03-16T00:36:09.261Z,79.86
2023-03-16T00:38:49.990Z,79.79
2023-03-16T00:41:17.621Z,79.98
2023-03-16T00:43:48.798Z,80.01
2023-03-16T00:46:17.581Z,80.11
2023-03-16T00:48:47.050Z,80.06
2023-03-16T00:51:17.442Z,79.99
2023-03-16T00:53:46.846Z,80.32
2023-03-16T00:56:15.444Z,80.34
2023-03-16T00:58:43.796Z,80.33
2023-03-16T01:01:20.119Z,80.49
2023-03-16T01:03:49.346Z,80.80
2023-03-16T01:06:20.495Z,80.64
2023-03-16T01:08:49.037Z,80.58
2023-03-16T01:11:20.727Z,80.90
2023-03-16T01:13:49.984Z,81.01
2023-03-16T01:16:23.426Z,81.05
2023-03-16T01:18:52.569Z,81.16
2023-03-16T01:21:21.808Z,81.25
2023-03-16T01:23:52.893Z,81.26
2023-03-16T01:26:22.880Z,81.27
2023-03-16T01:28:50.959Z,81.26
2023-03-16T01:31:18.659Z,81.12
2023-03-16T01:33:46.815Z,81.43
2023-03-16T01:36:22.099Z,81.36
2023-03-16T01:39:06.721Z,81.24
2023-03-16T01:41:43.175Z,81.40
2023-03-16T01:44:17.518Z,81.58
2023-03-16T01:46:45.662Z,81.69
2023-03-16T01:49:23.682Z,81.71
2023-03-16T01:52:10.070Z,81.69
2023-03-16T01:54:43.781Z,81.72
2023-03-16T01:57:19.222Z,81.90
2023-03-16T01:59:57.844Z,81.83
2023-03-16T02:02:29.844Z,81.90
2023-03-16T02:05:13.757Z,81.85
2023-03-16T02:07:47.940Z,81.87
2023-03-16T02:10:19.009Z,82.00
2023-03-16T02:12:47.385Z,82.14
2023-03-16T02:15:15.448Z,82.06
2023-03-16T02:17:45.079Z,82.10
2023-03-16T02:20:35.328Z,82.29
2023-03-16T02:23:05.898Z,82.15
2023-03-16T02:26:03.767Z,82.32
2023-03-16T02:28:45.031Z,82.45
2023-03-16T02:31:12.740Z,82.42
2023-03-16T02:33:42.761Z,82.51
2023-03-16T02:36:11.531Z,82.52
2023-03-16T02:38:39.337Z,82.61
2023-03-16T02:41:17.907Z,82.59
2023-03-16T02:44:06.783Z,82.56
2023-03-16T02:46:38.605Z,82.63
2023-03-16T02:49:10.959Z,82.80
2023-03-16T02:51:40.939Z,82.91
2023-03-16T02:54:08.674Z,82.87
2023-03-16T02:56:36.523Z,83.00
2023-03-16T02:59:04.319Z,82.97
2023-03-16T03:01:34.762Z,82.97
2023-03-16T03:04:04.384Z,82.89
2023-03-16T03:06:33.356Z,83.01
2023-03-16T03:09:02.064Z,83.05
2023-03-16T03:11:30.270Z,83.08
2023-03-16T03:13:58.142Z,83.29
2023-03-16T03:16:27.555Z,83.26
2023-03-16T03:18:56.016Z,83.22
2023-03-16T03:21:24.146Z,83.30
2023-03-16T03:23:52.112Z,83.47
2023-03-16T03:26:20.589Z,83.44
2023-03-16T03:28:49.302Z,83.53
2023-03-16T03:31:22.100Z,83.59
2023-03-16T03:33:49.859Z,83.77
2023-03-16T03:36:17.676Z,83.75
2023-03-16T03:38:46.079Z,83.76
2023-03-16T03:41:13.971Z,83.81
2023-03-16T03:43:41.637Z,84.03
2023-03-16T03:46:14.739Z,84.09
2023-03-16T03:48:42.771Z,83.93
2023-03-16T03:51:10.675Z,83.89
2023-03-16T03:53:47.091Z,84.02
2023-03-16T03:56:26.733Z,84.28
2023-03-16T03:58:54.549Z,84.29
2023-03-16T04:01:33.414Z,84.27
2023-03-16T04:04:01.069Z,84.38
2023-03-16T04:06:28.952Z,84.41
2023-03-16T04:08:56.634Z,84.36
2023-03-16T04:11:28.580Z,84.49
2023-03-16T04:13:56.240Z,84.49
2023-03-16T04:16:26.943Z,84.29
2023-03-16T04:18:55.262Z,84.32
2023-03-16T04:21:24.084Z,84.37
2023-03-16T04:23:54.434Z,84.33
2023-03-16T04:26:25.604Z,84.57
2023-03-16T04:28:53.425Z,84.56
2023-03-16T04:31:21.585Z,84.59
2023-03-16T04:33:50.794Z,84.64
2023-03-16T04:36:18.880Z,84.78
2023-03-16T04:38:46.560Z,84.76
2023-03-16T04:41:14.252Z,84.65
2023-03-16T04:43:49.413Z,84.50
2023-03-16T04:46:22.118Z,84.62
2023-03-16T04:48:50.080Z,84.78
2023-03-16T04:51:18.790Z,84.61
2023-03-16T04:53:56.525Z,84.85
2023-03-16T04:56:30.163Z,84.88
2023-03-16T04:59:01.141Z,84.78
2023-03-16T05:01:31.244Z,84.65
2023-03-16T05:04:00.149Z,84.79
2023-03-16T05:06:29.233Z,84.88
2023-03-16T05:09:00.719Z,85.00
2023-03-16T05:11:29.078Z,85.15
2023-03-16T05:13:59.047Z,84.96
2023-03-16T05:16:28.038Z,85.16
2023-03-16T05:19:00.621Z,85.21
2023-03-16T05:21:31.947Z,85.33
2023-03-16T05:24:03.044Z,85.49
2023-03-16T05:26:31.477Z,85.46
2023-03-16T05:29:00.249Z,85.41
2023-03-16T05:31:32.741Z,85.50
2023-03-16T05:34:02.417Z,85.48
2023-03-16T05:36:30.081Z,85.67
2023-03-16T05:39:05.066Z,85.72
2023-03-16T05:41:37.004Z,85.71
2023-03-16T05:44:13.906Z,85.84
2023-03-16T05:46:57.762Z,85.89
2023-03-16T05:49:26.212Z,85.97
2023-03-16T05:51:54.782Z,86.01
2023-03-16T05:54:23.213Z,86.19
2023-03-16T05:56:51.231Z,86.03
2023-03-16T05:59:18.940Z,86.28
2023-03-16T06:01:51.811Z,86.43
2023-03-16T06:04:21.678Z,86.53
2023-03-16T06:06:49.842Z,86.49
2023-03-16T06:09:22.011Z,86.54
2023-03-16T06:11:49.894Z,86.76
2023-03-16T06:14:18.148Z,86.61
2023-03-16T06:16:46.045Z,86.73
2023-03-16T06:19:14.212Z,87.00
2023-03-16T06:21:42.915Z,86.95
2023-03-16T06:24:11.546Z,87.23
2023-03-16T06:26:39.546Z,87.35
2023-03-16T06:29:08.690Z,87.38
2023-03-16T06:34:07.176Z,87.48
2023-03-16T06:36:35.406Z,87.46
2023-03-16T06:39:04.433Z,87.59
2023-03-16T06:41:35.757Z,87.46
2023-03-16T06:44:05.998Z,87.47
2023-03-16T06:46:34.873Z,87.53
2023-03-16T06:49:04.853Z,87.40
2023-03-16T06:51:33.486Z,87.25
2023-03-16T06:54:01.317Z,87.51
2023-03-16T06:56:31.681Z,87.52
2023-03-16T06:58:59.547Z,87.82
2023-03-16T07:01:27.635Z,87.84
2023-03-16T07:03:59.033Z,87.52
2023-03-16T07:06:30.011Z,87.56
2023-03-16T07:09:00.704Z,87.33
2023-03-16T07:11:32.364Z,87.44
2023-03-16T07:14:02.726Z,87.53
2023-03-16T07:16:33.957Z,87.67
2023-03-16T07:19:04.455Z,87.87
2023-03-16T07:21:39.198Z,88.00
2023-03-16T07:24:10.710Z,87.80
2023-03-16T07:26:39.685Z,87.99
2023-03-16T07:29:09.938Z,88.16
2023-03-16T07:31:38.901Z,88.03
2023-03-16T07:34:11.591Z,88.02
2023-03-16T07:36:44.296Z,88.10
2023-03-16T07:39:17.763Z,87.95
2023-03-16T07:41:45.781Z,87.80
2023-03-16T07:44:19.830Z,87.99
2023-03-16T07:46:49.599Z,88.15
2023-03-16T07:49:18.682Z,88.25
2023-03-16T07:51:47.699Z,88.32
2023-03-16T07:54:17.512Z,88.32
2023-03-16T07:56:49.314Z,88.33
2023-03-16T08:02:20.065Z,88.56
2023-03-16T08:04:50.285Z,88.67
2023-03-16T08:07:19.222Z,89.21
2023-03-16T08:10:04.375Z,88.61
2023-03-16T08:12:42.302Z,88.67
2023-03-16T08:15:11.777Z,88.80
2023-03-16T08:17:44.127Z,88.34
2023-03-16T08:20:16.536Z,88.34
2023-03-16T08:22:46.813Z,88.61
2023-03-16T08:25:20.080Z,88.30
2023-03-16T08:28:08.778Z,88.78
2023-03-16T08:30:37.929Z,88.70
2023-03-16T08:33:18.033Z,89.16
2023-03-16T08:35:48.019Z,88.86
2023-03-16T08:38:20.943Z,88.94
2023-03-16T08:40:52.019Z,88.96
2023-03-16T08:43:21.460Z,88.68
2023-03-16T08:45:50.808Z,88.49
2023-03-16T08:48:20.361Z,88.75
2023-03-16T08:50:54.415Z,88.97
2023-03-16T08:53:23.245Z,89.18
2023-03-16T08:55:51.790Z,88.70
2023-03-16T08:58:20.663Z,88.70
2023-03-16T09:00:50.535Z,88.78
2023-03-16T09:03:20.396Z,88.52
2023-03-16T09:05:51.643Z,88.56
2023-03-16T09:08:20.341Z,88.63
2023-03-16T09:10:49.730Z,88.02
2023-03-16T09:13:19.149Z,88.01
2023-03-16T09:15:47.547Z,88.07
2023-03-16T09:18:16.217Z,87.61
2023-03-16T09:20:47.623Z,88.26
2023-03-16T09:23:15.729Z,88.20
2023-03-16T09:25:44.313Z,87.84
2023-03-16T09:28:12.484Z,87.89
2023-03-16T09:30:41.025Z,87.81
2023-03-16T09:33:09.152Z,87.71
2023-03-16T09:35:38.036Z,88.04
2023-03-16T09:38:07.254Z,87.98
2023-03-16T09:40:38.025Z,87.86
2023-03-16T09:43:32.167Z,87.54
2023-03-16T09:46:08.263Z,87.85
2023-03-16T09:48:41.282Z,87.72
2023-03-16T09:51:20.210Z,87.51
2023-03-16T09:53:54.521Z,87.05
2023-03-16T09:56:26.145Z,87.22
2023-03-16T09:58:55.115Z,87.07
2023-03-16T10:01:29.239Z,86.96
2023-03-16T10:03:58.974Z,85.74
2023-03-16T10:06:28.319Z,86.01
2023-03-16T10:09:12.402Z,86.33
2023-03-16T10:11:46.278Z,85.99
2023-03-16T10:14:30.146Z,85.12
2023-03-16T10:17:01.296Z,85.60
2023-03-16T10:19:37.312Z,85.41
2023-03-16T10:22:22.220Z,84.34
2023-03-16T10:25:06.713Z,84.60
2023-03-16T10:27:39.421Z,83.81
2023-03-16T10:30:25.616Z,83.96
2023-03-16T10:32:56.429Z,83.63
2023-03-16T10:35:41.724Z,84.13
2023-03-16T10:38:26.378Z,83.30
2023-03-16T10:40:54.694Z,82.64
2023-03-16T10:43:23.183Z,82.94
2023-03-16T10:45:58.597Z,83.33
2023-03-16T10:48:28.231Z,83.67
2023-03-16T10:50:57.504Z,82.82
2023-03-16T10:53:34.879Z,82.98
2023-03-16T10:56:11.878Z,82.64
2023-03-16T10:58:42.499Z,82.75
2023-03-16T11:01:13.604Z,82.95
2023-03-16T11:03:41.681Z,82.64
2023-03-16T11:06:20.952Z,82.04
2023-03-16T11:09:06.382Z,82.02
2023-03-16T11:11:38.927Z,82.08
2023-03-16T11:14:12.821Z,82.61
2023-03-16T11:16:47.916Z,81.90
2023-03-16T11:19:19.849Z,81.55
2023-03-16T11:22:03.632Z,80.97
2023-03-16T11:24:46.525Z,80.07
2023-03-16T11:27:33.853Z,80.65
2023-03-16T11:30:05.445Z,80.89
2023-03-16T11:32:36.874Z,81.30
2023-03-16T11:35:16.328Z,82.03
2023-03-16T11:38:04.642Z,82.03
2023-03-16T11:40:38.680Z,82.09
2023-03-16T11:43:16.342Z,82.00
2023-03-16T11:46:10.023Z,82.02
2023-03-16T11:48:56.423Z,81.64
2023-03-16T11:51:35.320Z,81.79
2023-03-16T11:54:09.556Z,81.79
2023-03-16T11:56:53.901Z,81.23
2023-03-16T11:59:23.937Z,81.56
2023-03-16T12:02:00.121Z,81.12
2023-03-16T12:04:33.465Z,81.10
2023-03-16T12:07:17.494Z,80.94
2023-03-16T12:10:02.616Z,80.35
2023-03-16T12:12:48.703Z,80.69
2023-03-16T12:15:19.132Z,81.29
2023-03-16T12:17:51.029Z,81.16
2023-03-16T12:20:26.524Z,80.76
2023-03-16T12:22:59.433Z,81.19
2023-03-16T12:25:31.652Z,80.88
2023-03-16T12:28:01.688Z,81.20
2023-03-16T12:30:45.782Z,81.79
2023-03-16T12:33:30.011Z,82.36
2023-03-16T12:36:01.280Z,82.22
2023-03-16T12:38:37.310Z,82.59
2023-03-16T12:41:10.247Z,82.66
2023-03-16T12:43:54.381Z,83.94
2023-03-16T12:46:31.085Z,84.67
2023-03-16T12:49:02.089Z,85.37
2023-03-16T12:51:38.670Z,85.62
2023-03-16T12:54:17.469Z,85.38
2023-03-16T12:56:46.917Z,85.22
2023-03-16T12:59:19.879Z,84.66
2023-03-16T13:02:51.612Z,84.99
2023-03-16T13:05:32.544Z,85.95
2023-03-16T13:08:11.904Z,85.59
2023-03-16T13:10:40.646Z,84.67
2023-03-16T13:13:15.132Z,83.72
2023-03-16T13:15:50.722Z,84.13
2023-03-16T13:18:22.239Z,83.65
2023-03-16T13:20:55.939Z,83.51
2023-03-16T13:23:46.831Z,83.42
2023-03-16T13:26:40.649Z,84.04
2023-03-16T13:29:25.444Z,82.46
2023-03-16T13:31:56.427Z,81.20
2023-03-16T13:34:33.790Z,80.92
2023-03-16T13:37:02.435Z,81.10
2023-03-16T13:39:31.889Z,81.14
2023-03-16T13:42:12.912Z,81.43
2023-03-16T13:44:41.789Z,82.07
2023-03-16T13:47:19.370Z,82.57
2023-03-16T13:49:48.704Z,82.92
2023-03-16T13:52:33.333Z,83.41
2023-03-16T13:55:06.969Z,83.62
2023-03-16T13:57:37.532Z,84.29
2023-03-16T14:00:15.435Z,84.62
2023-03-16T14:02:49.095Z,85.25
2023-03-16T14:05:20.518Z,84.11
2023-03-16T14:07:53.567Z,84.45
2023-03-16T14:10:24.201Z,81.89
2023-03-16T14:12:55.597Z,81.95
2023-03-16T14:15:28.497Z,82.85
2023-03-16T14:18:08.101Z,77.00
2023-03-16T14:20:41.244Z,76.93
2023-03-16T14:23:17.569Z,76.88
2023-03-16T14:25:47.035Z,77.41
2023-03-16T14:28:15.747Z,77.26
2023-03-16T14:30:53.572Z,77.58
2023-03-16T14:33:27.942Z,78.22
2023-03-16T14:35:56.866Z,78.08
2023-03-16T14:38:29.924Z,78.83
2023-03-16T14:40:58.419Z,78.11
2023-03-16T14:43:30.634Z,78.11
2023-03-16T14:45:59.783Z,78.73
2023-03-16T14:48:28.249Z,79.37
2023-03-16T14:50:57.462Z,80.36
2023-03-16T14:53:28.282Z,79.25
2023-03-16T14:55:56.792Z,81.07
2023-03-16T14:58:25.547Z,79.09
2023-03-16T15:00:53.836Z,75.42
2023-03-16T15:03:24.146Z,76.07
2023-03-16T15:05:51.942Z,76.03
2023-03-16T15:08:26.577Z,75.91
2023-03-16T15:10:56.088Z,77.00
2023-03-16T15:13:39.693Z,77.54
2023-03-16T15:16:11.355Z,78.17
2023-03-16T15:18:39.846Z,78.74
2023-03-16T15:21:15.590Z,78.73
2023-03-16T15:23:43.935Z,78.88
2023-03-16T15:26:12.945Z,79.32
2023-03-16T15:28:41.044Z,79.51
2023-03-16T15:31:11.909Z,79.54
2023-03-16T15:33:41.213Z,79.54
2023-03-16T15:36:14.670Z,78.89
2023-03-16T15:38:49.937Z,79.09
2023-03-16T15:41:17.727Z,79.30
2023-03-16T15:43:45.884Z,80.61
2023-03-16T15:46:14.504Z,80.77
2023-03-16T15:48:42.349Z,80.81
2023-03-16T15:51:13.146Z,79.03
2023-03-16T15:53:45.543Z,77.98
2023-03-16T15:56:16.542Z,77.89
2023-03-16T15:58:45.870Z,78.14
2023-03-16T16:01:21.175Z,78.24
2023-03-16T16:03:51.022Z,78.58
2023-03-16T16:06:18.852Z,78.84
2023-03-16T16:08:46.484Z,79.01
2023-03-16T16:11:16.686Z,79.30
2023-03-16T16:13:45.362Z,79.45
2023-03-16T16:16:14.536Z,79.72
2023-03-16T16:18:42.720Z,79.74
2023-03-16T16:21:32.407Z,79.88
2023-03-16T16:24:02.098Z,79.73
2023-03-16T16:26:45.516Z,80.06
2023-03-16T16:29:17.872Z,80.13
2023-03-16T16:31:46.161Z,80.09
2023-03-16T16:34:15.014Z,79.93
2023-03-16T16:36:42.983Z,79.72
2023-03-16T16:39:11.011Z,79.80
2023-03-16T16:41:38.979Z,79.90
2023-03-16T16:44:14.030Z,79.91
2023-03-16T16:46:42.426Z,79.80
2023-03-16T16:49:13.959Z,79.77
2023-03-16T16:51:42.645Z,79.88
2023-03-16T16:54:18.000Z,79.88
2023-03-16T16:56:46.467Z,80.07
2023-03-16T16:59:18.862Z,80.10
2023-03-16T17:01:47.724Z,80.12
2023-03-16T17:04:19.624Z,80.03
2023-03-16T17:06:47.978Z,80.04
2023-03-16T17:09:16.163Z,80.06
2023-03-16T17:11:45.361Z,80.16
2023-03-16T17:14:17.115Z,80.27
2023-03-16T17:16:47.682Z,80.28
2023-03-16T17:19:21.538Z,80.28
2023-03-16T17:21:50.173Z,80.31
2023-03-16T17:24:18.207Z,80.43
2023-03-16T17:26:47.796Z,80.55
2023-03-16T17:29:21.081Z,80.74
2023-03-16T17:31:49.485Z,80.86
2023-03-16T17:34:24.755Z,81.04
2023-03-16T17:36:53.039Z,81.15
2023-03-16T17:39:32.127Z,81.45
2023-03-16T17:42:01.809Z,81.48
2023-03-16T17:44:33.026Z,81.37
2023-03-16T17:47:01.696Z,81.58
2023-03-16T17:49:34.311Z,81.78
2023-03-16T17:52:03.057Z,81.94
2023-03-16T17:54:32.533Z,82.12
2023-03-16T17:57:00.236Z,82.52
2023-03-16T17:59:29.529Z,82.90
2023-03-16T18:02:01.892Z,82.97
2023-03-16T18:04:29.882Z,82.86
2023-03-16T18:06:58.150Z,83.12
2023-03-16T18:09:28.583Z,83.21
2023-03-16T18:11:56.500Z,83.26
2023-03-16T18:14:34.525Z,83.36
2023-03-16T18:17:26.601Z,83.11
2023-03-16T18:19:54.667Z,83.28
2023-03-16T18:22:24.642Z,83.62
2023-03-16T18:24:53.800Z,83.67
2023-03-16T18:27:22.330Z,83.89
2023-03-16T18:29:50.344Z,84.01
2023-03-16T18:32:23.225Z,83.98
2023-03-16T18:34:52.473Z,83.85
2023-03-16T18:37:23.061Z,83.66
2023-03-16T18:39:52.062Z,83.70
2023-03-16T18:42:24.748Z,83.66
2023-03-16T18:44:53.206Z,83.52
2023-03-16T18:47:31.330Z,83.62
2023-03-16T18:49:59.306Z,84.08
2023-03-16T18:52:29.160Z,84.23
2023-03-16T18:54:58.104Z,84.10
2023-03-16T18:57:27.901Z,84.05
2023-03-16T18:59:55.680Z,83.85
2023-03-16T19:02:27.477Z,83.68
2023-03-16T19:04:59.895Z,83.68
2023-03-16T19:07:36.407Z,83.77
2023-03-16T19:10:24.902Z,84.25
2023-03-16T19:12:53.195Z,84.72
2023-03-16T19:15:25.783Z,84.78
2023-03-16T19:17:54.030Z,84.88
2023-03-16T19:20:23.466Z,84.97
2023-03-16T19:22:53.652Z,84.85
2023-03-16T19:25:24.898Z,84.57
2023-03-16T19:27:53.945Z,84.59
2023-03-16T19:30:24.141Z,84.78
2023-03-16T19:32:52.470Z,85.01
2023-03-16T19:35:20.715Z,85.32
2023-03-16T19:37:49.137Z,85.25
2023-03-16T19:40:19.205Z,85.17
2023-03-16T19:42:47.883Z,85.18
2023-03-16T19:45:17.616Z,85.40
2023-03-16T19:47:46.261Z,85.29
2023-03-16T19:50:23.879Z,85.13
2023-03-16T19:52:51.761Z,85.29
2023-03-16T19:55:23.555Z,85.15
2023-03-16T19:57:58.352Z,85.11
2023-03-16T20:00:26.925Z,84.96
2023-03-16T20:02:58.689Z,84.70
2023-03-16T20:05:29.023Z,84.68
2023-03-16T20:07:58.150Z,84.85
2023-03-16T20:10:27.218Z,84.92
2023-03-16T20:12:56.607Z,85.13
2023-03-16T20:15:28.865Z,85.12
2023-03-16T20:17:57.169Z,85.18
2023-03-16T20:20:26.477Z,85.06
2023-03-16T20:22:57.403Z,84.96
2023-03-16T20:25:28.866Z,84.86
2023-03-16T20:28:01.118Z,85.01
2023-03-16T20:30:30.359Z,85.07
2023-03-16T20:32:58.148Z,85.17
2023-03-16T20:35:28.434Z,85.07
2023-03-16T20:37:56.232Z,85.32
2023-03-16T20:40:24.048Z,85.27
2023-03-16T20:42:54.553Z,85.51
2023-03-16T20:45:24.647Z,85.61
2023-03-16T20:47:53.616Z,85.69
2023-03-16T20:50:24.116Z,85.70
2023-03-16T20:52:52.047Z,85.52
2023-03-16T20:55:21.311Z,85.58
2023-03-16T20:57:50.322Z,85.97
2023-03-16T21:00:20.648Z,86.20
2023-03-16T21:02:48.385Z,86.28
2023-03-16T21:05:16.201Z,86.51
2023-03-16T21:07:43.915Z,86.30
2023-03-16T21:10:14.767Z,86.39
2023-03-16T21:12:44.758Z,85.92
2023-03-16T21:15:19.404Z,85.87
2023-03-16T21:17:47.464Z,86.04
2023-03-16T21:20:17.159Z,86.36
2023-03-16T21:22:45.758Z,86.42
2023-03-16T21:25:30.880Z,86.12
2023-03-16T21:28:00.456Z,86.36
2023-03-16T21:30:37.226Z,86.61
2023-03-16T21:33:12.660Z,86.52
2023-03-16T21:35:40.349Z,86.58
2023-03-16T21:38:16.592Z,86.65
2023-03-16T21:40:45.176Z,86.41
2023-03-16T21:43:13.464Z,86.08
2023-03-16T21:45:42.024Z,85.94
2023-03-16T21:48:20.305Z,85.89
2023-03-16T21:50:49.773Z,86.18
2023-03-16T21:53:22.627Z,86.10
2023-03-16T21:55:51.523Z,86.17
2023-03-16T21:58:19.251Z,86.37
2023-03-16T22:00:47.595Z,86.14
2023-03-16T22:03:50.153Z,86.20
2023-03-16T22:06:19.510Z,86.22
2023-03-16T22:08:47.173Z,86.28
2023-03-16T22:11:16.251Z,86.32
2023-03-16T22:13:43.970Z,86.38
2023-03-16T22:16:18.942Z,86.27
2023-03-16T22:18:48.021Z,86.23
2023-03-16T22:21:29.263Z,85.94
2023-03-16T22:23:57.685Z,86.07
2023-03-16T22:26:25.730Z,86.00
2023-03-16T22:28:55.965Z,85.91
2023-03-16T22:31:30.672Z,86.03
2023-03-16T22:33:59.020Z,86.19
2023-03-16T22:36:27.149Z,86.27
2023-03-16T22:38:59.821Z,86.08
2023-03-16T22:41:28.808Z,85.90
2023-03-16T22:43:57.210Z,85.98
2023-03-16T22:46:26.523Z,85.90
2023-03-16T22:48:55.318Z,85.78
2023-03-16T22:51:26.538Z,85.89
2023-03-16T22:53:56.334Z,86.03
2023-03-16T22:56:24.332Z,86.52
2023-03-16T22:58:57.637Z,86.76
2023-03-16T23:01:41.246Z,86.90
2023-03-16T23:04:25.864Z,87.08
2023-03-16T23:06:54.313Z,87.09
2023-03-16T23:09:22.682Z,87.14
2023-03-16T23:11:53.918Z,86.78
2023-03-16T23:14:24.118Z,86.48
2023-03-16T23:16:52.514Z,86.72
2023-03-16T23:19:26.470Z,86.61
2023-03-16T23:21:55.867Z,86.92
2023-03-16T23:24:23.818Z,87.07
2023-03-16T23:26:52.389Z,86.91
2023-03-16T23:29:20.900Z,86.67
2023-03-16T23:31:48.712Z,86.86
2023-03-16T23:34:18.054Z,86.80
2023-03-16T23:36:45.741Z,86.84
2023-03-16T23:39:13.430Z,86.81
2023-03-16T23:41:45.738Z,86.73
2023-03-16T23:44:17.676Z,86.91
2023-03-16T23:46:45.345Z,86.92
2023-03-16T23:49:21.871Z,87.07
2023-03-16T23:51:50.128Z,87.15
2023-03-16T23:54:19.739Z,87.14
2023-03-16T23:56:47.440Z,87.17
2023-03-16T23:59:15.370Z,87.23
